Time;durP1;ratioP1;P1;durP2;ratioP2;P2;SDS_P1;SDS_P2;PMS_P1;PMS_P2;Temp;Humidity;BMP_temperature;BMP_pressure;BME280_temperature;BME280_humidity;BME280_pressure;Samples;Min_cycle;Max_cycle;Signal;HPM_P1;HPM_P2
2023/05/26 00:00:09;;;;;;;15.23;5.17;;;;;;;;;;5012394;28;20974;-45
2023/05/26 00:02:39;;;;;;;21.80;5.50;;;;;;;;;;5013898;28;20440;-46
2023/05/26 00:05:05;;;;;;;13.20;4.97;;;;;;;;;;5014079;28;20409;-45
2023/05/26 00:07:31;;;;;;;24.60;6.00;;;;;;;;;;5013608;28;20406;-44
2023/05/26 00:09:57;;;;;;;22.20;7.77;;;;;;;;;;5013661;28;20908;-44
2023/05/26 00:12:23;;;;;;;18.53;5.60;;;;;;;;;;5016372;28;20914;-44
2023/05/26 00:14:49;;;;;;;25.20;6.13;;;;;;;;;;5013028;28;20452;-44
2023/05/26 00:17:18;;;;;;;20.07;5.47;;;;;;;;;;5013358;28;20496;-45
2023/05/26 00:19:44;;;;;;;12.47;5.90;;;;;;;;;;5013625;28;20420;-44
2023/05/26 00:22:14;;;;;;;15.43;5.43;;;;;;;;;;5014731;28;20411;-44
2023/05/26 00:24:40;;;;;;;16.43;6.17;;;;;;;;;;5015565;28;20412;-44
2023/05/26 00:27:06;;;;;;;18.13;5.50;;;;;;;;;;5013252;28;20427;-44
2023/05/26 00:29:32;;;;;;;13.33;5.70;;;;;;;;;;5012394;28;20425;-45
2023/05/26 00:31:58;;;;;;;22.43;5.90;;;;;;;;;;5012155;28;20460;-44
2023/05/26 00:34:24;;;;;;;20.50;7.30;;;;;;;;;;5012970;28;20522;-45
2023/05/26 00:36:50;;;;;;;20.53;7.07;;;;;;;;;;5012926;28;20440;-44
2023/05/26 00:39:16;;;;;;;17.93;6.57;;;;;;;;;;5013110;28;20412;-45
2023/05/26 00:41:42;;;;;;;18.30;7.23;;;;;;;;;;5013243;28;20411;-44
2023/05/26 00:44:07;;;;;;;18.53;5.20;;;;;;;;;;5013130;28;20888;-44
2023/05/26 00:46:33;;;;;;;25.27;5.73;;;;;;;;;;5012883;28;20773;-44
2023/05/26 00:48:59;;;;;;;23.23;5.70;;;;;;;;;;5014252;28;20399;-44
2023/05/26 00:51:25;;;;;;;17.13;4.70;;;;;;;;;;5013924;28;21017;-45
2023/05/26 00:53:52;;;;;;;17.90;5.00;;;;;;;;;;5012772;28;21014;-45
2023/05/26 00:56:18;;;;;;;17.73;5.37;;;;;;;;;;5012870;28;20407;-46
2023/05/26 00:58:45;;;;;;;24.07;5.07;;;;;;;;;;5012804;28;20813;-45
2023/05/26 01:01:12;;;;;;;20.43;6.57;;;;;;;;;;5011788;28;20431;-46
2023/05/26 01:03:38;;;;;;;19.10;5.20;;;;;;;;;;5011628;28;20481;-45
2023/05/26 01:06:04;;;;;;;24.27;5.50;;;;;;;;;;5012568;28;20899;-45
2023/05/26 01:08:30;;;;;;;17.50;4.83;;;;;;;;;;5010192;28;20414;-45
2023/05/26 01:11:12;;;;;;;19.93;4.23;;;;;;;;;;5014305;28;20962;-45
2023/05/26 01:14:04;;;;;;;18.97;4.90;;;;;;;;;;5008938;28;20439;-45
2023/05/26 01:16:34;;;;;;;20.03;4.70;;;;;;;;;;5006367;28;20502;-46
2023/05/26 01:19:19;;;;;;;24.90;4.60;;;;;;;;;;5012501;28;20414;-45
2023/05/26 01:21:47;;;;;;;12.77;3.93;;;;;;;;;;5012762;28;20418;-45
2023/05/26 01:24:33;;;;;;;19.73;5.30;;;;;;;;;;5012519;28;20434;-45
2023/05/26 01:27:06;;;;;;;16.80;4.20;;;;;;;;;;5003588;28;20420;-45
2023/05/26 01:29:35;;;;;;;20.33;4.40;;;;;;;;;;5012212;28;20411;-46
2023/05/26 01:32:09;;;;;;;18.63;5.07;;;;;;;;;;5011322;28;20466;-45
2023/05/26 01:34:35;;;;;;;13.40;4.53;;;;;;;;;;5011772;28;20936;-45
2023/05/26 01:37:00;;;;;;;17.20;6.30;;;;;;;;;;4996626;28;20490;-45
2023/05/26 01:39:27;;;;;;;27.27;4.90;;;;;;;;;;5012209;28;20402;-45
2023/05/26 01:41:57;;;;;;;17.40;4.70;;;;;;;;;;5012250;28;20534;-46
2023/05/26 01:44:41;;;;;;;17.90;5.10;;;;;;;;;;5011951;28;20814;-45
2023/05/26 01:47:07;;;;;;;14.67;4.60;;;;;;;;;;5005329;28;20411;-45
2023/05/26 01:49:34;;;;;;;14.67;4.40;;;;;;;;;;5012014;28;20452;-45
2023/05/26 01:52:03;;;;;;;14.40;4.30;;;;;;;;;;5012015;28;20466;-45
2023/05/26 01:54:34;;;;;;;19.73;4.20;;;;;;;;;;5012377;28;20430;-45
2023/05/26 01:57:00;;;;;;;16.27;4.43;;;;;;;;;;5004299;28;20490;-45
2023/05/26 01:59:26;;;;;;;16.30;4.87;;;;;;;;;;5000030;28;20414;-45
2023/05/26 02:01:52;;;;;;;22.90;5.43;;;;;;;;;;5011504;28;20955;-45
2023/05/26 02:04:18;;;;;;;15.43;4.80;;;;;;;;;;5012112;28;20533;-46
2023/05/26 02:06:44;;;;;;;19.07;5.50;;;;;;;;;;5011581;28;20505;-46
2023/05/26 02:09:10;;;;;;;17.00;4.10;;;;;;;;;;5011980;28;20433;-45
2023/05/26 02:11:36;;;;;;;15.83;4.90;;;;;;;;;;5011814;28;20966;-45
2023/05/26 02:14:02;;;;;;;16.57;3.83;;;;;;;;;;5011764;28;20931;-46
2023/05/26 02:16:28;;;;;;;24.27;5.13;;;;;;;;;;5011812;28;20918;-45
2023/05/26 02:18:54;;;;;;;17.90;5.10;;;;;;;;;;5011821;28;20411;-45
2023/05/26 02:21:21;;;;;;;25.97;5.30;;;;;;;;;;5011791;28;20407;-46
2023/05/26 02:23:46;;;;;;;16.17;4.90;;;;;;;;;;5011679;28;20517;-45
2023/05/26 02:26:13;;;;;;;17.90;5.50;;;;;;;;;;5011698;28;20494;-45
2023/05/26 02:28:39;;;;;;;21.60;5.00;;;;;;;;;;5011771;28;20423;-46
2023/05/26 02:31:05;;;;;;;15.83;4.90;;;;;;;;;;5010661;28;20459;-46
2023/05/26 02:33:31;;;;;;;25.23;5.83;;;;;;;;;;5011117;28;20965;-45
2023/05/26 02:35:57;;;;;;;22.47;5.30;;;;;;;;;;5011778;28;20400;-45
2023/05/26 02:38:23;;;;;;;22.47;5.43;;;;;;;;;;5011589;28;20815;-45
2023/05/26 02:40:49;;;;;;;13.20;4.80;;;;;;;;;;5011572;28;20527;-45
2023/05/26 02:43:16;;;;;;;17.00;5.00;;;;;;;;;;5011435;28;20463;-45
2023/05/26 02:45:42;;;;;;;16.90;6.30;;;;;;;;;;5011582;28;20411;-45
2023/05/26 02:48:08;;;;;;;16.23;5.33;;;;;;;;;;5011442;28;20407;-45
2023/05/26 02:50:34;;;;;;;20.77;5.13;;;;;;;;;;5011480;28;20463;-45
2023/05/26 02:53:00;;;;;;;16.40;5.47;;;;;;;;;;5011920;28;20473;-45
2023/05/26 02:55:26;;;;;;;17.43;5.73;;;;;;;;;;5011530;28;20399;-45
2023/05/26 02:57:52;;;;;;;18.83;5.23;;;;;;;;;;5015102;28;20407;-46
2023/05/26 03:00:18;;;;;;;26.50;5.43;;;;;;;;;;5015323;28;20410;-45
2023/05/26 03:02:44;;;;;;;16.50;4.53;;;;;;;;;;5012922;28;20462;-45
2023/05/26 03:05:12;;;;;;;20.40;5.07;;;;;;;;;;5015276;28;20415;-45
2023/05/26 03:07:38;;;;;;;19.13;4.97;;;;;;;;;;5014789;28;20417;-45
2023/05/26 03:10:04;;;;;;;19.60;4.70;;;;;;;;;;5015158;28;20650;-45
2023/05/26 03:12:30;;;;;;;12.27;4.87;;;;;;;;;;5018555;28;20409;-45
2023/05/26 03:14:56;;;;;;;15.00;4.57;;;;;;;;;;5014929;28;20407;-45
2023/05/26 03:17:22;;;;;;;21.37;4.83;;;;;;;;;;5014702;28;20415;-45
2023/05/26 03:19:48;;;;;;;19.90;5.87;;;;;;;;;;5014767;28;20411;-45
2023/05/26 03:22:14;;;;;;;22.57;6.93;;;;;;;;;;5014886;28;20407;-45
2023/05/26 03:24:41;;;;;;;16.90;4.63;;;;;;;;;;5014702;28;20403;-46
2023/05/26 03:27:06;;;;;;;18.00;4.57;;;;;;;;;;5014537;28;20929;-45
2023/05/26 03:29:33;;;;;;;29.37;5.27;;;;;;;;;;5014740;28;20442;-45
2023/05/26 03:31:59;;;;;;;14.27;4.87;;;;;;;;;;5013989;28;20465;-45
2023/05/26 03:34:25;;;;;;;15.13;4.80;;;;;;;;;;5014536;28;20933;-45
2023/05/26 03:36:52;;;;;;;13.67;4.60;;;;;;;;;;5009989;28;20521;-45
2023/05/26 03:39:18;;;;;;;15.80;5.57;;;;;;;;;;5014534;28;20411;-45
2023/05/26 03:41:44;;;;;;;17.70;6.20;;;;;;;;;;5014506;28;20423;-45
2023/05/26 03:44:11;;;;;;;21.93;6.20;;;;;;;;;;5014308;28;20898;-45
2023/05/26 03:46:37;;;;;;;21.33;4.83;;;;;;;;;;5014131;28;20641;-45
2023/05/26 03:49:03;;;;;;;16.90;4.97;;;;;;;;;;5014396;28;20847;-45
2023/05/26 03:51:30;;;;;;;13.30;6.00;;;;;;;;;;5010575;28;20466;-45
2023/05/26 03:53:56;;;;;;;18.07;5.47;;;;;;;;;;5011477;28;20454;-45
2023/05/26 03:56:22;;;;;;;20.60;5.40;;;;;;;;;;5013952;28;20471;-45
2023/05/26 03:58:48;;;;;;;19.93;6.50;;;;;;;;;;5014146;28;20425;-45
2023/05/26 04:01:15;;;;;;;17.43;6.00;;;;;;;;;;5013279;28;20454;-45
2023/05/26 04:03:41;;;;;;;19.03;5.13;;;;;;;;;;5013910;28;20935;-46
2023/05/26 04:06:07;;;;;;;14.30;5.43;;;;;;;;;;5013855;28;20500;-45
2023/05/26 04:08:33;;;;;;;17.53;4.23;;;;;;;;;;5013908;28;20406;-45
2023/05/26 04:10:59;;;;;;;15.20;5.10;;;;;;;;;;5013982;28;20830;-45
2023/05/26 04:13:25;;;;;;;16.80;4.90;;;;;;;;;;5013836;28;20863;-46
2023/05/26 04:15:51;;;;;;;12.80;4.73;;;;;;;;;;5013916;28;20434;-45
2023/05/26 04:18:17;;;;;;;14.90;5.07;;;;;;;;;;5013597;28;20409;-45
2023/05/26 04:20:43;;;;;;;24.50;5.80;;;;;;;;;;5013708;28;20509;-45
2023/05/26 04:23:09;;;;;;;25.77;7.97;;;;;;;;;;5013318;28;20454;-45
2023/05/26 04:25:35;;;;;;;17.10;4.87;;;;;;;;;;5013685;28;20403;-45
2023/05/26 04:28:02;;;;;;;25.50;5.80;;;;;;;;;;5013493;28;20430;-45
2023/05/26 04:30:28;;;;;;;20.37;5.87;;;;;;;;;;5013526;28;20831;-45
2023/05/26 04:32:54;;;;;;;16.37;5.90;;;;;;;;;;5013450;28;20419;-45
2023/05/26 04:35:20;;;;;;;19.23;5.83;;;;;;;;;;5013535;28;20402;-45
2023/05/26 04:37:48;;;;;;;26.10;5.97;;;;;;;;;;5013175;28;20848;-45
2023/05/26 04:40:14;;;;;;;21.50;5.83;;;;;;;;;;5013374;28;20415;-45
2023/05/26 04:42:40;;;;;;;16.67;5.17;;;;;;;;;;5013064;28;20438;-45
2023/05/26 04:45:08;;;;;;;16.23;5.00;;;;;;;;;;5013170;28;20461;-45
2023/05/26 04:47:35;;;;;;;31.83;5.70;;;;;;;;;;5013435;28;20404;-45
2023/05/26 04:50:01;;;;;;;22.67;6.23;;;;;;;;;;5013232;28;20422;-45
2023/05/26 04:52:27;;;;;;;20.00;5.50;;;;;;;;;;5012496;28;20934;-45
2023/05/26 04:54:54;;;;;;;18.33;5.70;;;;;;;;;;5012396;28;20886;-45
2023/05/26 04:57:20;;;;;;;20.37;5.90;;;;;;;;;;5012763;28;20501;-45
2023/05/26 04:59:46;;;;;;;21.47;5.63;;;;;;;;;;5012998;28;20439;-45
2023/05/26 05:02:12;;;;;;;14.87;6.40;;;;;;;;;;5013110;28;20454;-45
2023/05/26 05:04:38;;;;;;;24.43;7.00;;;;;;;;;;5012897;28;20822;-44
2023/05/26 05:07:04;;;;;;;31.67;6.20;;;;;;;;;;5012999;28;20499;-45
2023/05/26 05:09:30;;;;;;;26.30;5.50;;;;;;;;;;5012826;28;20410;-45
2023/05/26 05:11:56;;;;;;;23.47;5.73;;;;;;;;;;5012653;28;20458;-45
2023/05/26 05:14:22;;;;;;;23.87;7.23;;;;;;;;;;5016316;28;20427;-45
2023/05/26 05:16:48;;;;;;;24.40;5.93;;;;;;;;;;5012432;28;20491;-45
2023/05/26 05:19:14;;;;;;;24.20;6.00;;;;;;;;;;5012293;28;20408;-45
2023/05/26 05:21:40;;;;;;;24.17;6.87;;;;;;;;;;5012637;28;20465;-45
2023/05/26 05:24:06;;;;;;;12.80;6.07;;;;;;;;;;5010964;28;20447;-45
2023/05/26 05:26:32;;;;;;;26.77;6.93;;;;;;;;;;5011977;28;20435;-45
2023/05/26 05:28:58;;;;;;;22.67;6.00;;;;;;;;;;5012652;28;20425;-45
2023/05/26 05:31:24;;;;;;;22.23;7.80;;;;;;;;;;5012608;28;20451;-45
2023/05/26 05:33:50;;;;;;;23.73;6.73;;;;;;;;;;5012295;28;20974;-44
2023/05/26 05:36:16;;;;;;;21.70;6.80;;;;;;;;;;5012400;28;20431;-45
2023/05/26 05:38:42;;;;;;;23.57;6.93;;;;;;;;;;5012127;28;20407;-44
2023/05/26 05:41:09;;;;;;;27.53;7.40;;;;;;;;;;5012224;28;20407;-44
2023/05/26 05:43:35;;;;;;;20.37;7.67;;;;;;;;;;5012138;28;21115;-44
2023/05/26 05:46:01;;;;;;;30.83;8.53;;;;;;;;;;5012160;28;20419;-45
2023/05/26 05:48:27;;;;;;;26.60;6.80;;;;;;;;;;5012182;28;20423;-46
2023/05/26 05:50:53;;;;;;;24.90;7.50;;;;;;;;;;5012027;28;20456;-45
2023/05/26 05:53:19;;;;;;;19.33;7.03;;;;;;;;;;5011649;28;20530;-45
2023/05/26 05:55:46;;;;;;;23.57;6.60;;;;;;;;;;5011443;28;20427;-45
2023/05/26 05:58:12;;;;;;;21.33;7.33;;;;;;;;;;5011939;28;20952;-45
2023/05/26 06:00:38;;;;;;;28.73;8.70;;;;;;;;;;5006334;28;20436;-44
2023/05/26 06:03:04;;;;;;;19.97;6.80;;;;;;;;;;5012613;28;20989;-45
2023/05/26 06:05:30;;;;;;;28.27;7.70;;;;;;;;;;5012006;28;20400;-45
2023/05/26 06:07:56;;;;;;;25.43;7.50;;;;;;;;;;5019876;28;20845;-45
2023/05/26 06:10:22;;;;;;;22.73;7.33;;;;;;;;;;5011423;28;20463;-45
2023/05/26 06:12:48;;;;;;;20.73;7.43;;;;;;;;;;5005595;28;20440;-44
2023/05/26 06:15:14;;;;;;;42.77;8.90;;;;;;;;;;5011854;28;20417;-45
2023/05/26 06:17:40;;;;;;;29.60;8.10;;;;;;;;;;5011317;28;20407;-46
2023/05/26 06:20:06;;;;;;;22.97;7.73;;;;;;;;;;5018461;28;20407;-45
2023/05/26 06:22:36;;;;;;;27.33;8.47;;;;;;;;;;5012037;28;20413;-45
2023/05/26 06:25:02;;;;;;;25.10;7.57;;;;;;;;;;5010578;28;20424;-44
2023/05/26 06:27:28;;;;;;;21.43;8.07;;;;;;;;;;5010236;28;20430;-45
2023/05/26 06:29:54;;;;;;;19.47;9.57;;;;;;;;;;5012941;28;20432;-44
2023/05/26 06:32:20;;;;;;;24.27;9.47;;;;;;;;;;5015658;28;20409;-44
2023/05/26 06:34:46;;;;;;;24.77;8.60;;;;;;;;;;5016783;28;20410;-45
2023/05/26 06:37:12;;;;;;;30.77;10.50;;;;;;;;;;5016827;28;20404;-44
2023/05/26 06:39:38;;;;;;;21.13;9.40;;;;;;;;;;5016299;28;20435;-45
2023/05/26 06:42:05;;;;;;;28.80;10.10;;;;;;;;;;5016686;28;20412;-45
2023/05/26 06:44:31;;;;;;;24.10;8.83;;;;;;;;;;5016729;28;20960;-44
2023/05/26 06:46:57;;;;;;;26.70;8.53;;;;;;;;;;5016081;28;20467;-44
2023/05/26 06:49:23;;;;;;;26.93;9.80;;;;;;;;;;5016314;28;20780;-46
2023/05/26 06:51:49;;;;;;;21.03;8.70;;;;;;;;;;5016234;28;20455;-45
2023/05/26 06:54:15;;;;;;;28.53;10.37;;;;;;;;;;5016746;28;20817;-44
2023/05/26 06:56:41;;;;;;;19.40;8.60;;;;;;;;;;5013275;28;20426;-44
2023/05/26 06:59:07;;;;;;;22.70;8.83;;;;;;;;;;5015776;28;20910;-44
2023/05/26 07:01:33;;;;;;;23.47;7.90;;;;;;;;;;5015272;28;20430;-44
2023/05/26 07:03:59;;;;;;;22.33;8.70;;;;;;;;;;5008318;28;20906;-47
2023/05/26 07:06:25;;;;;;;20.10;8.20;;;;;;;;;;5015296;28;20411;-45
2023/05/26 07:08:51;;;;;;;22.10;8.70;;;;;;;;;;5015078;28;20412;-45
2023/05/26 07:11:17;;;;;;;27.40;9.13;;;;;;;;;;5014771;28;20534;-44
2023/05/26 07:13:46;;;;;;;22.70;9.10;;;;;;;;;;5015300;28;20460;-43
2023/05/26 07:16:12;;;;;;;26.37;9.30;;;;;;;;;;5014612;28;20412;-46
2023/05/26 07:18:38;;;;;;;24.07;11.40;;;;;;;;;;5014769;28;20452;-46
2023/05/26 07:21:04;;;;;;;25.33;9.40;;;;;;;;;;5014629;28;20413;-46
2023/05/26 07:23:30;;;;;;;25.23;8.50;;;;;;;;;;5014478;28;20436;-44
2023/05/26 07:25:56;;;;;;;22.27;9.47;;;;;;;;;;5013429;28;20479;-44
2023/05/26 07:28:22;;;;;;;16.90;8.50;;;;;;;;;;5014086;28;20429;-44
2023/05/26 07:30:48;;;;;;;27.63;8.90;;;;;;;;;;5014614;28;20491;-45
2023/05/26 07:33:14;;;;;;;21.50;8.77;;;;;;;;;;5014948;28;20425;-44
2023/05/26 07:35:40;;;;;;;30.80;8.33;;;;;;;;;;5015195;28;20488;-46
2023/05/26 07:38:07;;;;;;;22.83;9.77;;;;;;;;;;5014929;28;20498;-46
2023/05/26 07:40:35;;;;;;;24.97;8.37;;;;;;;;;;5015639;28;20401;-46
2023/05/26 07:43:03;;;;;;;25.90;9.83;;;;;;;;;;5015062;28;20454;-45
2023/05/26 07:45:30;;;;;;;26.50;8.47;;;;;;;;;;5015226;28;20449;-45
2023/05/26 07:47:56;;;;;;;35.40;9.30;;;;;;;;;;5011401;28;20423;-45
2023/05/26 07:50:22;;;;;;;23.27;8.40;;;;;;;;;;5015026;28;20688;-46
2023/05/26 07:52:48;;;;;;;27.10;9.50;;;;;;;;;;5015142;28;20431;-46
2023/05/26 07:55:14;;;;;;;25.80;9.27;;;;;;;;;;5015426;28;20415;-46
2023/05/26 07:57:40;;;;;;;20.77;8.63;;;;;;;;;;5012551;28;20427;-45
2023/05/26 08:00:06;;;;;;;23.07;8.50;;;;;;;;;;5014994;28;20410;-46
2023/05/26 08:02:32;;;;;;;22.93;7.77;;;;;;;;;;5014838;28;20399;-46
2023/05/26 08:04:58;;;;;;;17.53;7.17;;;;;;;;;;5014974;28;20823;-46
2023/05/26 08:07:24;;;;;;;25.07;9.50;;;;;;;;;;5014972;28;20399;-46
2023/05/26 08:09:52;;;;;;;22.43;8.13;;;;;;;;;;5015121;28;20490;-46
2023/05/26 08:12:18;;;;;;;21.57;8.80;;;;;;;;;;5013528;28;21085;-46
2023/05/26 08:14:44;;;;;;;23.07;8.17;;;;;;;;;;5013275;28;20395;-46
2023/05/26 08:17:10;;;;;;;19.07;8.10;;;;;;;;;;5010859;28;20505;-46
2023/05/26 08:19:36;;;;;;;21.17;6.70;;;;;;;;;;5012567;28;20488;-46
2023/05/26 08:22:02;;;;;;;20.33;7.27;;;;;;;;;;5014150;28;20389;-46
2023/05/26 08:24:28;;;;;;;16.30;7.10;;;;;;;;;;5013375;28;20445;-45
2023/05/26 08:26:54;;;;;;;21.53;7.40;;;;;;;;;;5013271;28;20820;-47
2023/05/26 08:29:22;;;;;;;24.23;7.23;;;;;;;;;;5014360;28;20429;-47
2023/05/26 08:31:48;;;;;;;18.23;6.77;;;;;;;;;;5014556;28;20463;-46
2023/05/26 08:34:14;;;;;;;22.37;8.90;;;;;;;;;;5012829;28;20873;-46
2023/05/26 08:36:40;;;;;;;20.63;7.00;;;;;;;;;;5014132;28;20413;-46
2023/05/26 08:39:06;;;;;;;21.03;7.33;;;;;;;;;;5014734;28;20769;-47
2023/05/26 08:41:37;;;;;;;26.93;7.37;;;;;;;;;;5014428;28;20736;-47
2023/05/26 08:44:04;;;;;;;21.90;8.10;;;;;;;;;;5014588;28;20442;-46
2023/05/26 08:46:32;;;;;;;22.20;7.80;;;;;;;;;;5014264;28;20376;-46
2023/05/26 08:48:58;;;;;;;13.17;7.97;;;;;;;;;;5006723;28;20457;-46
2023/05/26 08:51:24;;;;;;;28.87;9.73;;;;;;;;;;5014337;28;20511;-44
2023/05/26 08:53:50;;;;;;;25.87;9.77;;;;;;;;;;5010821;28;20470;-46
2023/05/26 08:56:16;;;;;;;17.20;8.10;;;;;;;;;;5011879;28;20985;-44
2023/05/26 08:58:43;;;;;;;29.03;10.37;;;;;;;;;;5012938;28;20443;-44
2023/05/26 09:01:09;;;;;;;18.83;9.77;;;;;;;;;;5012876;28;20489;-47
2023/05/26 09:03:36;;;;;;;26.90;10.90;;;;;;;;;;5012887;28;20485;-44
2023/05/26 09:06:02;;;;;;;23.50;8.90;;;;;;;;;;5012770;28;20411;-44
2023/05/26 09:08:29;;;;;;;23.30;10.80;;;;;;;;;;5012856;28;20411;-44
2023/05/26 09:10:55;;;;;;;36.23;12.90;;;;;;;;;;5012714;28;20622;-44
2023/05/26 09:13:21;;;;;;;22.37;10.03;;;;;;;;;;5016183;28;20470;-44
2023/05/26 09:15:51;;;;;;;24.93;10.00;;;;;;;;;;5012542;28;20416;-44
2023/05/26 09:18:17;;;;;;;28.17;10.00;;;;;;;;;;5012385;28;20442;-44
2023/05/26 09:20:44;;;;;;;24.00;9.80;;;;;;;;;;5012697;28;20411;-44
2023/05/26 09:23:11;;;;;;;21.73;10.83;;;;;;;;;;5012554;28;20427;-44
2023/05/26 09:25:37;;;;;;;29.50;10.73;;;;;;;;;;5011453;28;20470;-46
2023/05/26 09:28:04;;;;;;;24.00;9.23;;;;;;;;;;5011449;28;20409;-44
2023/05/26 09:30:35;;;;;;;22.47;8.93;;;;;;;;;;5012350;28;20452;-44
2023/05/26 09:33:01;;;;;;;21.77;8.90;;;;;;;;;;5011619;28;20761;-44
2023/05/26 09:35:27;;;;;;;21.63;8.87;;;;;;;;;;5012507;28;20656;-44
2023/05/26 09:37:55;;;;;;;21.70;9.43;;;;;;;;;;5011966;28;20960;-44
2023/05/26 09:40:21;;;;;;;23.30;9.13;;;;;;;;;;5012318;28;20409;-44
2023/05/26 09:42:48;;;;;;;25.87;9.33;;;;;;;;;;5011955;28;20449;-46
2023/05/26 09:45:16;;;;;;;26.23;7.60;;;;;;;;;;5012160;28;20445;-46
2023/05/26 09:47:42;;;;;;;22.20;6.60;;;;;;;;;;5011967;28;20401;-45
2023/05/26 09:50:08;;;;;;;26.23;7.13;;;;;;;;;;5010937;28;20410;-44
2023/05/26 09:52:34;;;;;;;19.67;6.63;;;;;;;;;;5012040;28;20865;-47
2023/05/26 09:55:00;;;;;;;20.70;6.27;;;;;;;;;;5011202;28;20926;-45
2023/05/26 09:57:28;;;;;;;21.93;5.60;;;;;;;;;;5008468;28;20429;-44
2023/05/26 09:59:54;;;;;;;19.80;6.13;;;;;;;;;;5011871;28;20457;-44
2023/05/26 10:02:21;;;;;;;21.40;6.77;;;;;;;;;;5011896;28;20400;-45
2023/05/26 10:04:47;;;;;;;19.10;6.07;;;;;;;;;;5011680;28;20419;-44
2023/05/26 10:07:13;;;;;;;18.37;4.93;;;;;;;;;;5011791;28;20934;-45
2023/05/26 10:09:40;;;;;;;16.10;5.53;;;;;;;;;;5011838;28;20406;-45
2023/05/26 10:12:07;;;;;;;17.30;5.37;;;;;;;;;;5011920;28;20753;-44
2023/05/26 10:14:37;;;;;;;14.80;5.10;;;;;;;;;;5020906;28;20437;-44
2023/05/26 10:17:04;;;;;;;15.93;6.50;;;;;;;;;;5011578;28;20767;-45
2023/05/26 10:19:30;;;;;;;15.30;5.97;;;;;;;;;;5010711;28;20914;-45
2023/05/26 10:22:01;;;;;;;12.60;6.00;;;;;;;;;;5011812;28;20415;-45
2023/05/26 10:24:38;;;;;;;20.50;6.37;;;;;;;;;;5010574;28;20534;-45
2023/05/26 10:27:14;;;;;;;18.33;5.83;;;;;;;;;;5010719;28;20502;-45
2023/05/26 10:29:46;;;;;;;19.83;6.37;;;;;;;;;;5009925;28;20820;-45
2023/05/26 10:32:31;;;;;;;18.50;6.37;;;;;;;;;;5009917;28;20492;-45
2023/05/26 10:34:57;;;;;;;15.13;5.27;;;;;;;;;;5011101;28;20410;-45
2023/05/26 10:37:26;;;;;;;17.13;5.90;;;;;;;;;;5010486;28;20407;-45
2023/05/26 10:39:52;;;;;;;21.07;6.07;;;;;;;;;;5011234;28;20879;-45
2023/05/26 10:42:19;;;;;;;18.47;6.70;;;;;;;;;;5011477;28;20446;-45
2023/05/26 10:44:46;;;;;;;23.57;5.77;;;;;;;;;;5011715;28;20416;-45
2023/05/26 10:47:14;;;;;;;13.60;5.40;;;;;;;;;;5011361;28;20475;-45
2023/05/26 10:49:40;;;;;;;14.33;5.53;;;;;;;;;;5011448;28;20434;-45
2023/05/26 10:52:13;;;;;;;17.60;5.20;;;;;;;;;;5011490;28;20461;-45
2023/05/26 10:54:40;;;;;;;20.33;5.23;;;;;;;;;;5010637;28;21017;-45
2023/05/26 10:57:06;;;;;;;20.20;7.60;;;;;;;;;;5011186;28;20411;-47
2023/05/26 10:59:36;;;;;;;13.73;5.47;;;;;;;;;;5011942;28;20891;-45
2023/05/26 11:02:07;;;;;;;13.87;5.47;;;;;;;;;;5008594;28;20424;-44
2023/05/26 11:04:49;;;;;;;16.17;5.73;;;;;;;;;;5010141;28;20437;-45
2023/05/26 11:07:16;;;;;;;10.47;4.83;;;;;;;;;;5009588;28;20422;-47
2023/05/26 11:09:56;;;;;;;16.27;4.50;;;;;;;;;;5010122;28;20454;-45
2023/05/26 11:12:22;;;;;;;15.57;5.40;;;;;;;;;;5011931;28;20548;-48
2023/05/26 11:14:48;;;;;;;16.07;6.47;;;;;;;;;;5027419;28;20462;-45
2023/05/26 11:17:17;;;;;;;15.20;6.03;;;;;;;;;;5012326;28;20521;-45
2023/05/26 11:19:52;;;;;;;12.50;4.97;;;;;;;;;;5014974;28;20785;-47
2023/05/26 11:22:21;;;;;;;18.60;6.60;;;;;;;;;;5014824;28;20418;-45
2023/05/26 11:24:49;;;;;;;14.80;4.87;;;;;;;;;;5013629;28;20438;-47
2023/05/26 11:27:15;;;;;;;16.43;5.23;;;;;;;;;;5014408;28;20531;-45
2023/05/26 11:29:41;;;;;;;15.60;6.50;;;;;;;;;;5014694;28;20437;-45
2023/05/26 11:32:07;;;;;;;16.67;6.20;;;;;;;;;;5014655;28;20462;-45
2023/05/26 11:34:33;;;;;;;17.53;6.67;;;;;;;;;;5009959;28;20463;-45
2023/05/26 11:36:59;;;;;;;17.33;5.03;;;;;;;;;;4996421;28;20432;-45
2023/05/26 11:39:31;;;;;;;17.93;5.17;;;;;;;;;;5014616;28;20838;-47
2023/05/26 11:42:05;;;;;;;13.17;4.97;;;;;;;;;;5014581;28;20419;-46
2023/05/26 11:44:31;;;;;;;17.00;6.17;;;;;;;;;;5014395;28;20442;-46
2023/05/26 11:46:57;;;;;;;14.20;6.10;;;;;;;;;;5014124;28;20415;-45
2023/05/26 11:49:23;;;;;;;11.43;5.43;;;;;;;;;;5014462;28;20460;-46
2023/05/26 11:51:50;;;;;;;14.60;5.20;;;;;;;;;;5014269;28;20458;-45
2023/05/26 11:54:17;;;;;;;14.30;5.93;;;;;;;;;;5012916;28;20986;-47
2023/05/26 11:56:43;;;;;;;18.60;6.13;;;;;;;;;;5013010;28;20430;-45
2023/05/26 11:59:09;;;;;;;10.63;5.00;;;;;;;;;;5014239;28;20429;-45
2023/05/26 12:01:35;;;;;;;12.30;5.33;;;;;;;;;;5014096;28;20903;-47
2023/05/26 12:04:04;;;;;;;18.30;4.67;;;;;;;;;;5014063;28;20485;-46
2023/05/26 12:06:30;;;;;;;14.57;5.30;;;;;;;;;;5013733;28;20411;-45
2023/05/26 12:08:56;;;;;;;15.47;5.17;;;;;;;;;;5014048;28;20753;-45
2023/05/26 12:11:33;;;;;;;16.00;4.97;;;;;;;;;;5013913;28;21003;-45
2023/05/26 12:14:03;;;;;;;12.17;4.77;;;;;;;;;;5013502;28;20433;-47
2023/05/26 12:16:29;;;;;;;17.40;5.60;;;;;;;;;;5013624;28;20416;-45
2023/05/26 12:18:56;;;;;;;14.53;5.30;;;;;;;;;;5013773;28;20407;-45
2023/05/26 12:21:23;;;;;;;17.67;5.17;;;;;;;;;;5013701;28;20445;-46
2023/05/26 12:23:49;;;;;;;12.60;5.17;;;;;;;;;;5013649;28;20438;-45
2023/05/26 12:26:16;;;;;;;12.80;4.30;;;;;;;;;;5011725;28;20518;-45
2023/05/26 12:28:43;;;;;;;19.93;5.57;;;;;;;;;;5011628;28;20427;-45
2023/05/26 12:31:09;;;;;;;13.57;4.70;;;;;;;;;;5013518;28;20698;-47
2023/05/26 12:33:35;;;;;;;9.87;3.67;;;;;;;;;;5011402;28;21061;-48
2023/05/26 12:36:01;;;;;;;12.00;4.67;;;;;;;;;;5004844;28;20419;-45
2023/05/26 12:38:28;;;;;;;14.23;4.60;;;;;;;;;;5008791;28;20435;-45
2023/05/26 12:40:53;;;;;;;15.30;4.13;;;;;;;;;;5007586;28;20404;-47
2023/05/26 12:43:21;;;;;;;8.90;3.60;;;;;;;;;;5010525;28;20462;-45
2023/05/26 12:45:47;;;;;;;15.27;4.27;;;;;;;;;;5012278;28;20498;-46
2023/05/26 12:48:12;;;;;;;18.40;4.47;;;;;;;;;;5006831;28;20500;-46
2023/05/26 12:50:38;;;;;;;17.80;4.27;;;;;;;;;;5012876;28;20454;-47
2023/05/26 12:53:04;;;;;;;10.60;4.67;;;;;;;;;;5012823;28;20423;-46
2023/05/26 12:55:31;;;;;;;10.00;3.07;;;;;;;;;;5010007;28;20403;-46
2023/05/26 12:57:57;;;;;;;11.77;3.90;;;;;;;;;;5010799;28;20172;-46
2023/05/26 13:00:23;;;;;;;11.50;3.67;;;;;;;;;;5010514;28;20450;-46
2023/05/26 13:02:49;;;;;;;9.90;3.73;;;;;;;;;;5007155;28;20227;-46
2023/05/26 13:05:16;;;;;;;11.83;4.20;;;;;;;;;;5006345;28;20496;-45
2023/05/26 13:07:42;;;;;;;10.70;3.80;;;;;;;;;;5008682;28;21034;-47
2023/05/26 13:10:08;;;;;;;8.50;3.97;;;;;;;;;;5012361;28;20490;-46
2023/05/26 13:12:34;;;;;;;6.83;3.43;;;;;;;;;;5009886;28;20186;-45
2023/05/26 13:15:00;;;;;;;13.07;3.93;;;;;;;;;;5006063;28;20898;-46
2023/05/26 13:17:26;;;;;;;13.40;4.10;;;;;;;;;;5008513;28;20408;-46
2023/05/26 13:19:52;;;;;;;8.10;3.60;;;;;;;;;;5018410;28;20435;-44
2023/05/26 13:22:19;;;;;;;8.60;3.57;;;;;;;;;;5001630;28;20318;-49
2023/05/26 13:24:45;;;;;;;8.33;3.20;;;;;;;;;;5006700;28;20963;-48
2023/05/26 13:27:11;;;;;;;10.93;3.60;;;;;;;;;;5003531;28;20450;-46
2023/05/26 13:29:37;;;;;;;7.00;3.57;;;;;;;;;;5010845;28;21002;-46
2023/05/26 13:32:02;;;;;;;9.20;3.73;;;;;;;;;;5004530;28;20451;-45
2023/05/26 13:34:28;;;;;;;8.87;3.70;;;;;;;;;;5003449;28;20424;-45
2023/05/26 13:36:54;;;;;;;10.27;3.83;;;;;;;;;;5011023;28;20906;-45
2023/05/26 13:39:20;;;;;;;12.20;3.60;;;;;;;;;;5010926;28;20723;-45
2023/05/26 13:41:46;;;;;;;12.00;3.90;;;;;;;;;;5012164;28;20577;-45
2023/05/26 13:44:12;;;;;;;7.63;3.10;;;;;;;;;;5012190;28;20513;-46
2023/05/26 13:46:38;;;;;;;10.53;3.50;;;;;;;;;;5011674;28;20222;-46
2023/05/26 13:49:06;;;;;;;8.30;3.30;;;;;;;;;;5012381;28;20242;-46
2023/05/26 13:51:32;;;;;;;4.83;2.53;;;;;;;;;;5010870;28;20454;-46
2023/05/26 13:53:58;;;;;;;11.67;3.70;;;;;;;;;;5012196;28;21030;-45
2023/05/26 13:56:24;;;;;;;9.00;3.20;;;;;;;;;;5011087;28;20445;-45
2023/05/26 13:58:50;;;;;;;12.37;3.07;;;;;;;;;;5008808;28;20458;-46
2023/05/26 14:01:16;;;;;;;6.83;3.00;;;;;;;;;;5010069;28;20486;-45
2023/05/26 14:03:42;;;;;;;8.80;3.03;;;;;;;;;;5010318;28;20881;-46
2023/05/26 14:06:08;;;;;;;9.53;4.73;;;;;;;;;;5010153;28;20407;-46
2023/05/26 14:08:34;;;;;;;10.73;3.73;;;;;;;;;;5013430;28;20468;-46
2023/05/26 14:11:00;;;;;;;8.10;3.30;;;;;;;;;;5010750;28;20192;-47
2023/05/26 14:13:26;;;;;;;7.90;3.00;;;;;;;;;;5015300;28;20192;-47
2023/05/26 14:15:53;;;;;;;8.30;3.70;;;;;;;;;;5011565;28;20480;-46
2023/05/26 14:18:19;;;;;;;13.60;3.37;;;;;;;;;;5011814;28;20172;-45
2023/05/26 14:20:45;;;;;;;6.57;3.23;;;;;;;;;;5011795;28;20423;-45
2023/05/26 14:23:11;;;;;;;5.80;2.60;;;;;;;;;;5011903;28;20199;-46
2023/05/26 14:25:37;;;;;;;5.90;2.87;;;;;;;;;;5011104;28;20179;-47
2023/05/26 14:28:03;;;;;;;8.30;3.27;;;;;;;;;;5010808;28;20813;-49